This demonstration page uses our WeatherBlox Daily Observations layout. Learn more.

36.19886, -115.1175

Hourly Observations for July 1, 2018

Temp ( °F °C ) Dew Point ( °F °C ) Humidity (%) Winds ( mph kmh ) Pressure ( in mb ) Visibility ( mi km ) Precip ( " mm )
12:53 am 00:53 Clear 87 30.6 32 0 14 14 SE 3 6 29.8 1009 10 16.09344 0 0
1:53 am 01:53 Clear 82 27.8 31 -0.6 16 16 ESE 8 13 29.8 1009 10 16.09344 0 0
2:53 am 02:53 Clear 83 28.3 33 0.6 17 17 NE 8 13 29.8 1009 10 16.09344 0 0
3:53 am 03:53 Clear 81 27.2 34 1.1 18 18 N 6 9 29.83 1010 10 16.09344 0 0
4:53 am 04:53 Clear 81 27.2 34 1.1 18 18 NNW 7 11 29.85 1011 10 16.09344 0 0
5:53 am 05:53 Sunny 78 25.6 35 1.7 21 21 N 7 11 29.88 1012 10 16.09344 0 0
6:53 am 06:53 Sunny 82 27.8 35 1.7 18 18 N 6 9 29.91 1013 10 16.09344 0 0
7:53 am 07:53 Sunny 88 31.1 34 1.1 15 15 ENE 6 9 29.91 1013 10 16.09344 0 0
8:53 am 08:53 Sunny 91 32.8 33 0.6 13 13 ESE 13 20 29.91 1013 10 16.09344 0 0
9:53 am 09:53 Sunny 92 33.3 33 0.6 12 12 SE 9 15 29.91 1013 10 16.09344 0 0
10:53 am 10:53 Sunny 93 33.9 33 0.6 12 12 ESE 6 9 29.91 1013 10 16.09344 0 0
11:53 am 11:53 Sunny 96 35.6 33 0.6 11 11 ESE 5 7 29.91 1013 10 16.09344 0 0
12:53 pm 12:53 Sunny 98 36.7 32 0 10 10 SSE 5 7 29.88 1012 10 16.09344 0 0
1:53 pm 13:53 Sunny 101 38.3 33 0.6 9 9 S 6 9 29.85 1011 10 16.09344 0 0
2:53 pm 14:53 Sunny 102 38.9 33 0.6 9 9 SE 5 7 29.83 1010 10 16.09344 0 0
3:53 pm 15:53 Sunny 103 39.4 32 0 8 8 SSE 13 20 29.8 1009 10 16.09344 0 0
4:53 pm 16:53 Sunny 104 40 28 -2.2 7 7 SE 12 19 29.8 1009 10 16.09344 0 0
5:53 pm 17:53 Sunny 104 40 28 -2.2 7 7 S 6 9 29.77 1008 10 16.09344 0 0
6:53 pm 18:53 Sunny 103 39.4 31 -0.6 8 8 ESE 8 13 29.77 1008 10 16.09344 0 0
7:53 pm 19:53 Sunny 101 38.3 31 -0.6 8 8 SE 13 20 29.77 1008 10 16.09344 0 0
8:53 pm 20:53 Clear 99 37.2 31 -0.6 9 9 S 13 20 29.8 1009 10 16.09344 0 0
9:53 pm 21:53 Clear 97 36.1 32 0 10 10 SSE 10 17 29.8 1009 10 16.09344 0 0
10:53 pm 22:53 Clear 96 35.6 30 -1.1 10 10 SW 10 17 29.8 1009 10 16.09344 0 0
11:53 pm 23:53 Clear 94 34.4 30 -1.1 10 10 SW 12 19 29.8 1009 10 16.09344 0 0

Powered by AerisWeather